Time;durP1;ratioP1;P1;durP2;ratioP2;P2;SDS_P1;SDS_P2;PMS_P1;PMS_P2;Temp;Humidity;BMP_temperature;BMP_pressure;BME280_temperature;BME280_humidity;BME280_pressure;Samples;Min_cycle;Max_cycle;Signal;HPM_P1;HPM_P2
2021/08/29 00:00:30;;;;;;;;;18.00;16.33;;;;;20.63;53.22;98519.19;6137849;28;97509;-59
2021/08/29 00:03:34;;;;;;;;;18.00;17.00;;;;;20.59;53.30;98526.38;6138197;28;97523;-59
2021/08/29 00:06:37;;;;;;;;;19.00;16.25;;;;;20.57;53.24;98519.56;6136496;28;96793;-58
2021/08/29 00:09:40;;;;;;;;;18.00;17.20;;;;;20.57;53.55;98523.13;6113503;28;97455;-58
2021/08/29 00:12:45;;;;;;;;;22.00;18.00;;;;;20.59;53.17;98523.63;6136169;28;96669;-61
2021/08/29 00:15:49;;;;;;;;;17.00;15.00;;;;;20.60;53.14;98525.25;6137916;28;97394;-59
2021/08/29 00:18:53;;;;;;;;;17.00;16.00;;;;;20.58;53.77;98515.69;6137435;28;96614;-61
2021/08/29 00:21:56;;;;;;;;;17.75;16.00;;;;;20.60;53.30;98519.78;6137855;28;97031;-59
2021/08/29 00:24:59;;;;;;;;;16.75;14.75;;;;;20.63;52.84;98521.94;6138207;28;98841;-60
2021/08/29 00:28:03;;;;;;;;;15.00;13.00;;;;;20.56;53.24;98516.03;6142068;28;97017;-61
2021/08/29 00:31:08;;;;;;;;;18.00;16.60;;;;;20.62;53.49;98516.75;6128274;28;96777;-61
2021/08/29 00:34:12;;;;;;;;;20.00;17.00;;;;;20.56;53.46;98521.50;6142178;28;97117;-61
2021/08/29 00:37:15;;;;;;;;;16.40;14.00;;;;;20.58;53.12;98519.25;6141522;28;96673;-59
2021/08/29 00:40:19;;;;;;;;;16.60;15.00;;;;;20.59;53.01;98517.34;6124380;28;97195;-61
2021/08/29 00:43:24;;;;;;;;;17.00;16.40;;;;;20.59;52.84;98509.94;6164524;28;96548;-60
2021/08/29 00:46:28;;;;;;;;;15.00;13.00;;;;;20.60;53.18;98517.06;6148068;28;97545;-61
2021/08/29 00:49:31;;;;;;;;;17.00;15.00;;;;;20.60;53.02;98506.09;6149449;28;99552;-60
2021/08/29 00:52:36;;;;;;;;;17.25;15.00;;;;;20.53;53.57;98504.81;6164226;28;97416;-60
2021/08/29 00:55:40;;;;;;;;;17.00;15.00;;;;;20.43;53.21;98488.56;6146863;28;97185;-59
2021/08/29 00:58:44;;;;;;;;;17.00;15.00;;;;;20.53;53.16;98504.81;6164309;28;97598;-60
2021/08/29 01:01:56;;;;;;;;;18.40;15.00;;;;;20.50;52.97;98508.16;6165229;28;97426;-59
2021/08/29 01:05:07;;;;;;;;;15.00;14.00;;;;;20.45;53.13;98503.56;6165527;28;96621;-61
2021/08/29 01:08:19;;;;;;;;;16.60;15.00;;;;;20.47;53.27;98498.63;6147840;28;96981;-61
2021/08/29 01:11:28;;;;;;;;;19.00;16.00;;;;;20.47;53.37;98506.03;6147267;28;96699;-61
2021/08/29 01:14:34;;;;;;;;;18.50;15.50;;;;;20.47;53.28;98504.09;6131023;28;98701;-59
2021/08/29 01:17:39;;;;;;;;;19.40;17.60;;;;;20.47;53.22;98501.38;6147149;28;96810;-60
2021/08/29 01:20:52;;;;;;;;;14.00;13.40;;;;;20.44;53.03;98501.13;6144561;28;97565;-61
2021/08/29 01:23:59;;;;;;;;;15.50;13.50;;;;;20.43;52.98;98488.56;6145771;28;97506;-61
2021/08/29 01:27:09;;;;;;;;;16.00;15.00;;;;;20.42;53.03;98495.13;6164420;28;97864;-61
2021/08/29 01:30:14;;;;;;;;;14.50;13.00;;;;;20.41;53.01;98483.38;6147100;28;98550;-60
2021/08/29 01:33:19;;;;;;;;;14.00;14.00;;;;;20.39;52.98;98482.84;6164819;28;96661;-61
2021/08/29 01:36:31;;;;;;;;;15.60;14.00;;;;;20.33;53.16;98487.56;6145474;28;97623;-61
2021/08/29 01:39:39;;;;;;;;;15.50;14.00;;;;;20.33;53.19;98473.06;6147355;28;96497;-61
2021/08/29 01:42:44;;;;;;;;;15.00;14.00;;;;;20.36;53.04;98485.34;6154021;28;96751;-61
2021/08/29 01:45:49;;;;;;;;;15.00;13.25;;;;;20.33;53.34;98466.78;6155148;28;97592;-61
2021/08/29 01:48:56;;;;;;;;;14.60;13.60;;;;;20.40;52.99;98479.00;6139347;28;98828;-61
2021/08/29 01:52:00;;;;;;;;;12.00;12.00;;;;;20.43;52.58;98469.41;6138730;28;96675;-61
2021/08/29 01:55:13;;;;;;;;;13.75;13.25;;;;;20.41;53.15;98474.34;6139476;28;96877;-59
2021/08/29 01:58:35;;;;;;;;;13.00;12.00;;;;;20.19;52.70;98437.38;6138104;28;97918;-60
2021/08/29 02:01:42;;;;;;;;;15.00;13.80;;;;;20.39;52.55;98466.41;6138460;28;97565;-59
2021/08/29 02:04:46;;;;;;;;;13.40;12.60;;;;;20.38;52.73;98469.47;6140530;28;97386;-59
2021/08/29 02:08:00;;;;;;;;;14.00;13.00;;;;;20.44;52.25;98471.00;6139227;28;97512;-60
2021/08/29 02:11:10;;;;;;;;;13.60;12.00;;;;;20.39;52.69;98463.66;6144428;28;97030;-59
2021/08/29 02:14:18;;;;;;;;;14.00;13.00;;;;;20.39;52.49;98468.31;6144686;28;97472;-60
2021/08/29 02:17:26;;;;;;;;;12.00;11.00;;;;;20.33;52.62;98457.44;6137444;28;97394;-60
2021/08/29 02:20:30;;;;;;;;;11.40;11.00;;;;;20.37;53.01;98463.16;6138608;28;97452;-61
2021/08/29 02:23:34;;;;;;;;;13.25;13.00;;;;;20.34;52.96;98469.22;6139279;28;97502;-60
2021/08/29 02:26:39;;;;;;;;;12.60;12.00;;;;;20.18;52.55;98437.69;6137968;28;96492;-60
2021/08/29 02:29:49;;;;;;;;;13.00;11.00;;;;;20.30;52.77;98454.47;6138534;28;96735;-61
2021/08/29 02:32:57;;;;;;;;;11.25;10.75;;;;;20.33;52.51;98454.72;6137785;28;96853;-61
2021/08/29 02:36:04;;;;;;;;;10.75;10.00;;;;;20.33;52.46;98449.22;6137896;28;97505;-59
2021/08/29 02:39:19;;;;;;;;;12.00;11.00;;;;;20.35;52.61;98456.34;6137272;28;96571;-61
2021/08/29 02:42:24;;;;;;;;;11.60;10.00;;;;;20.24;52.42;98458.38;6137623;28;97547;-59
2021/08/29 02:45:34;;;;;;;;;9.50;9.00;;;;;20.26;52.28;98465.19;6138457;28;96954;-60
2021/08/29 02:48:44;;;;;;;;;9.00;9.00;;;;;20.28;52.75;98453.97;6136375;28;96592;-60
2021/08/29 02:51:51;;;;;;;;;9.00;9.00;;;;;20.30;52.65;98454.47;6120600;28;97769;-61
2021/08/29 02:54:57;;;;;;;;;11.00;10.00;;;;;20.32;52.48;98455.03;6137164;28;97397;-61
2021/08/29 02:58:02;;;;;;;;;12.00;10.60;;;;;20.16;52.96;98454.38;6138344;28;97434;-61
2021/08/29 03:01:31;;;;;;;;;10.00;10.00;;;;;20.15;52.98;98451.94;6138885;28;97535;-59
2021/08/29 03:04:36;;;;;;;;;14.00;13.00;;;;;20.14;53.49;98464.81;6137357;28;97757;-61
2021/08/29 03:07:40;;;;;;;;;12.00;11.00;;;;;20.13;53.29;98468.66;6138439;28;96829;-61
2021/08/29 03:10:43;;;;;;;;;12.00;11.60;;;;;20.13;53.34;98468.66;6137678;28;96526;-61
2021/08/29 03:13:49;;;;;;;;;10.20;9.20;;;;;20.16;53.31;98459.03;6137181;28;97024;-61
2021/08/29 03:16:53;;;;;;;;;10.80;9.80;;;;;20.18;53.58;98459.56;6136699;28;96760;-61
2021/08/29 03:20:19;;;;;;;;;11.60;10.40;;;;;20.16;53.59;98461.78;6131618;28;97455;-61
2021/08/29 03:23:25;;;;;;;;;11.00;10.00;;;;;20.17;53.46;98461.50;6137285;28;97509;-61
2021/08/29 03:26:30;;;;;;;;;10.60;10.40;;;;;20.19;53.74;98455.72;6136391;28;96894;-61
2021/08/29 03:29:42;;;;;;;;;10.50;10.00;;;;;20.20;53.34;98447.22;6136352;28;97594;-60
2021/08/29 03:32:48;;;;;;;;;12.60;11.00;;;;;20.18;53.79;98441.22;6137163;28;99193;-61
2021/08/29 03:36:06;;;;;;;;;13.00;11.80;;;;;20.16;53.45;98442.63;6150920;28;97574;-61
2021/08/29 03:39:13;;;;;;;;;12.80;10.80;;;;;20.18;53.46;98454.09;6136685;28;97725;-61
2021/08/29 03:42:18;;;;;;;;;13.00;12.00;;;;;20.16;53.41;98446.19;6135979;28;97557;-61
2021/08/29 03:45:24;;;;;;;;;12.00;12.00;;;;;20.16;53.39;98451.66;6137227;28;96764;-59
2021/08/29 03:48:32;;;;;;;;;13.00;12.60;;;;;20.18;53.80;98456.84;6137006;28;97494;-59
2021/08/29 03:51:39;;;;;;;;;12.00;11.75;;;;;20.16;53.59;98456.31;6137878;28;97635;-61
2021/08/29 03:54:45;;;;;;;;;14.00;12.00;;;;;20.17;53.42;98456.03;6138321;28;97499;-60
2021/08/29 03:57:50;;;;;;;;;12.00;10.25;;;;;20.16;53.48;98462.59;6136602;28;96729;-60
2021/08/29 04:00:54;;;;;;;;;14.00;14.00;;;;;20.20;53.56;98462.81;6141420;28;97551;-60
2021/08/29 04:04:00;;;;;;;;;14.00;13.20;;;;;20.17;53.85;98466.16;6142227;28;99407;-59
2021/08/29 04:07:11;;;;;;;;;13.00;12.00;;;;;20.16;53.97;98462.59;6141657;28;99638;-59
2021/08/29 04:10:35;;;;;;;;;12.00;11.20;;;;;20.21;53.90;98461.72;6122624;28;96784;-61
2021/08/29 04:13:40;;;;;;;;;14.00;14.00;;;;;20.22;53.55;98464.16;6140802;28;97108;-59
2021/08/29 04:16:57;;;;;;;;;14.00;13.00;;;;;20.21;53.84;98458.97;6136622;28;96642;-61
2021/08/29 04:20:22;;;;;;;;;15.40;13.80;;;;;20.21;53.75;98457.06;6136725;28;97485;-61
2021/08/29 04:23:27;;;;;;;;;11.00;11.00;;;;;20.21;53.58;98457.06;6123919;28;96730;-59
2021/08/29 04:26:31;;;;;;;;;13.00;12.00;;;;;20.01;53.74;98429.16;6124163;28;100264;-60
2021/08/29 04:29:35;;;;;;;;;12.00;11.00;;;;;20.18;53.64;98446.69;6140590;28;97134;-59
2021/08/29 04:32:43;;;;;;;;;14.00;13.00;;;;;20.19;53.90;98464.75;6132454;28;97726;-59
2021/08/29 04:35:54;;;;;;;;;13.40;13.00;;;;;20.12;54.36;98444.31;6136433;28;97398;-61
2021/08/29 04:39:00;;;;;;;;;12.00;12.00;;;;;20.18;54.18;98451.38;6150455;28;97649;-62
2021/08/29 04:42:05;;;;;;;;;14.00;13.00;;;;;20.15;54.49;98449.19;6155054;28;98079;-61
2021/08/29 04:45:09;;;;;;;;;15.60;15.60;;;;;20.18;54.18;98451.38;6137156;28;97589;-59
2021/08/29 04:48:12;;;;;;;;;15.20;14.80;;;;;20.17;54.33;98444.25;6136119;28;98252;-61
2021/08/29 04:51:15;;;;;;;;;19.00;16.00;;;;;20.09;54.18;98436.69;6137295;28;97465;-61
2021/08/29 04:54:20;;;;;;;;;17.00;16.60;;;;;20.20;54.25;98440.91;6139439;28;98029;-61
2021/08/29 04:57:24;;;;;;;;;17.40;17.00;;;;;20.22;54.53;98441.44;6139885;28;96711;-60
2021/08/29 05:00:27;;;;;;;;;18.00;17.00;;;;;20.23;54.24;98452.09;6139097;28;97342;-61
2021/08/29 05:03:36;;;;;;;;;18.20;16.20;;;;;20.23;54.54;98443.09;6138924;28;97520;-59
2021/08/29 05:06:41;;;;;;;;;20.00;18.00;;;;;20.28;54.39;98441.06;6137999;28;96814;-59
2021/08/29 05:09:49;;;;;;;;;18.80;17.80;;;;;20.26;54.26;98442.47;6120600;28;98525;-60
2021/08/29 05:12:53;;;;;;;;;17.20;16.20;;;;;20.24;54.33;98442.78;6136315;28;97453;-61
2021/08/29 05:15:56;;;;;;;;;21.00;19.00;;;;;20.30;54.00;98443.50;6136461;28;97323;-59
2021/08/29 05:19:00;;;;;;;;;20.60;18.60;;;;;20.34;54.06;98452.78;6138132;28;97530;-61
2021/08/29 05:22:04;;;;;;;;;21.40;18.40;;;;;20.38;54.28;98451.09;6138364;28;96717;-61
2021/08/29 05:25:35;;;;;;;;;20.00;18.50;;;;;20.38;54.24;98450.31;6107404;28;97784;-61
2021/08/29 05:28:39;;;;;;;;;21.80;18.40;;;;;20.37;53.96;98451.41;6139400;28;98482;-61
2021/08/29 05:31:42;;;;;;;;;19.00;18.25;;;;;20.37;54.42;98449.47;6138759;28;96748;-59
2021/08/29 05:34:48;;;;;;;;;21.00;19.00;;;;;20.28;54.20;98437.53;6143755;28;97188;-61
2021/08/29 05:37:52;;;;;;;;;20.60;19.00;;;;;20.33;54.26;98459.38;6148550;28;98123;-60
2021/08/29 05:41:32;;;;;;;;;20.60;19.60;;;;;20.36;54.36;98463.47;6108383;28;96631;-60
2021/08/29 05:44:53;;;;;;;;;23.00;21.00;;;;;20.35;54.08;98456.34;6139696;28;98125;-61
2021/08/29 05:47:57;;;;;;;;;21.60;20.00;;;;;20.36;54.52;98450.59;6144999;28;98264;-61
2021/08/29 05:51:00;;;;;;;;;20.60;18.60;;;;;20.34;54.40;98450.06;6139293;28;97046;-60
2021/08/29 05:54:04;;;;;;;;;19.60;17.00;;;;;20.37;54.27;98457.69;6149621;28;97546;-60
2021/08/29 05:57:08;;;;;;;;;19.60;19.00;;;;;20.41;54.16;98461.47;6137918;28;96560;-59
2021/08/29 06:00:13;;;;;;;;;18.00;17.00;;;;;20.33;53.95;98458.59;6133949;28;98530;-62
2021/08/29 06:03:23;;;;;;;;;16.60;15.60;;;;;20.40;54.52;98461.75;6137465;28;97576;-61
2021/08/29 06:06:34;;;;;;;;;16.00;16.00;;;;;20.40;54.62;98468.03;6137706;28;97585;-61
2021/08/29 06:09:38;;;;;;;;;17.75;17.50;;;;;20.21;54.59;98448.84;6133139;28;97175;-61
2021/08/29 06:12:42;;;;;;;;;19.40;16.40;;;;;20.36;54.29;98467.00;6139558;28;97018;-60
2021/08/29 06:15:46;;;;;;;;;16.00;15.00;;;;;20.33;54.80;98464.06;6133257;28;98159;-59
2021/08/29 06:18:52;;;;;;;;;21.40;18.40;;;;;20.33;54.32;98460.19;6145349;28;97970;-61
2021/08/29 06:21:56;;;;;;;;;19.00;17.20;;;;;20.44;54.38;98460.03;6114294;28;97362;-60
2021/08/29 06:25:00;;;;;;;;;19.00;16.60;;;;;20.41;54.38;98458.72;6125583;28;97533;-61
2021/08/29 06:28:24;;;;;;;;;16.00;16.00;;;;;20.49;54.20;98457.22;6132618;28;97390;-60
2021/08/29 06:31:57;;;;;;;;;17.00;16.00;;;;;20.50;54.53;98458.88;6080041;28;97785;-60
2021/08/29 06:35:11;;;;;;;;;19.00;17.00;;;;;20.54;54.42;98460.72;6131320;28;97509;-61
2021/08/29 06:38:41;;;;;;;;;19.00;16.00;;;;;20.47;54.42;98468.50;6116814;28;97522;-59
2021/08/29 06:41:44;;;;;;;;;19.40;17.60;;;;;20.54;54.64;98465.38;6131743;28;97110;-61
2021/08/29 06:44:54;;;;;;;;;18.00;16.00;;;;;20.58;54.49;98469.16;6124062;28;97439;-60
2021/08/29 06:48:16;;;;;;;;;18.00;17.00;;;;;20.57;54.14;98468.34;6131275;28;97468;-60
2021/08/29 06:51:45;;;;;;;;;18.80;15.80;;;;;20.65;54.16;98473.16;6086398;28;97632;-61
2021/08/29 06:55:14;;;;;;;;;17.00;15.50;;;;;20.68;54.25;98469.81;6086256;28;97573;-61
2021/08/29 06:58:27;;;;;;;;;19.00;17.60;;;;;20.75;54.58;98474.91;6087918;28;97061;-60
2021/08/29 07:01:32;;;;;;;;;19.00;18.00;;;;;20.81;54.29;98471.00;6072396;28;96739;-60
2021/08/29 07:04:36;;;;;;;;;17.60;16.60;;;;;20.93;54.79;98468.59;6069957;28;96795;-61
2021/08/29 07:07:41;;;;;;;;;22.40;18.60;;;;;20.97;54.47;98477.03;6070338;28;97617;-59
2021/08/29 07:10:52;;;;;;;;;19.00;16.25;;;;;21.07;54.02;98468.63;6084103;28;96997;-62
2021/08/29 07:14:13;;;;;;;;;20.00;19.00;;;;;21.17;54.11;98474.78;6084955;28;98096;-62
2021/08/29 07:17:19;;;;;;;;;22.20;19.00;;;;;21.23;53.89;98467.28;6066559;28;97683;-59
2021/08/29 07:20:22;;;;;;;;;22.00;21.00;;;;;21.16;54.42;98442.19;6084212;28;97205;-60
2021/08/29 07:23:44;;;;;;;;;19.00;16.20;;;;;21.41;54.33;98460.09;6083050;28;97440;-61
2021/08/29 07:27:07;;;;;;;;;20.00;18.50;;;;;21.44;53.83;98438.41;6083376;28;97604;-62
2021/08/29 07:30:29;;;;;;;;;25.50;22.50;;;;;21.61;53.77;98457.00;6138016;28;98049;-60
2021/08/29 07:33:41;;;;;;;;;21.60;20.60;;;;;21.71;53.58;98461.47;6126968;28;98082;-60
2021/08/29 07:37:05;;;;;;;;;20.75;18.75;;;;;21.70;53.85;98437.91;6128193;28;99261;-62
2021/08/29 07:40:09;;;;;;;;;25.00;22.00;;;;;21.90;53.60;98449.25;6134668;28;97462;-58
2021/08/29 07:43:14;;;;;;;;;22.20;21.00;;;;;22.04;53.26;98458.31;6147300;28;97545;-59
2021/08/29 07:46:18;;;;;;;;;24.00;22.00;;;;;22.15;52.71;98455.38;6137620;28;97557;-58
2021/08/29 07:49:23;;;;;;;;;20.50;18.00;;;;;22.24;52.78;98450.78;6160752;28;97506;-60
2021/08/29 07:52:27;;;;;;;;;21.25;18.00;;;;;22.34;52.67;98445.88;6158256;28;97300;-59
2021/08/29 07:55:48;;;;;;;;;22.00;19.00;;;;;22.45;52.76;98460.19;6159261;28;97429;-60
2021/08/29 07:58:57;;;;;;;;;23.75;20.00;;;;;22.54;52.43;98460.25;6146008;28;96843;-61
2021/08/29 08:02:00;;;;;;;;;22.00;19.00;;;;;22.61;51.25;98458.72;6142828;28;97460;-60
2021/08/29 08:05:29;;;;;;;;;22.00;20.00;;;;;22.71;51.40;98452.22;6140560;28;98532;-60
2021/08/29 08:09:05;;;;;;;;;20.50;17.50;;;;;22.83;51.39;98453.28;6157671;28;97370;-59
2021/08/29 08:12:37;;;;;;;;;23.40;21.40;;;;;23.06;50.97;98447.78;6144285;28;96711;-60
2021/08/29 08:15:40;;;;;;;;;20.00;19.40;;;;;23.18;50.17;98451.56;6159652;28;97069;-59
2021/08/29 08:18:44;;;;;;;;;20.20;18.20;;;;;23.32;50.75;98446.78;6142432;28;96841;-61
2021/08/29 08:21:49;;;;;;;;;21.00;19.40;;;;;23.35;49.54;98448.13;6143846;28;97807;-63
2021/08/29 08:25:10;;;;;;;;;18.80;17.00;;;;;23.41;50.03;98455.09;6141096;28;96860;-60
2021/08/29 08:28:32;;;;;;;;;18.00;17.00;;;;;23.49;49.41;98462.63;6159315;28;97585;-59
2021/08/29 08:31:56;;;;;;;;;16.40;15.40;;;;;23.55;48.32;98455.03;6120734;28;97970;-59
2021/08/29 08:35:22;;;;;;;;;16.50;15.00;;;;;23.63;47.96;98449.56;6121745;28;97985;-60
2021/08/29 08:38:50;;;;;;;;;18.40;17.00;;;;;23.65;47.99;98457.53;6146930;28;96681;-61
2021/08/29 08:42:00;;;;;;;;;16.00;16.00;;;;;23.60;48.04;98458.44;6125290;28;97492;-61
2021/08/29 08:45:22;;;;;;;;;17.00;16.00;;;;;23.66;48.10;98461.88;6135864;28;97384;-60
2021/08/29 08:48:48;;;;;;;;;18.25;17.00;;;;;23.66;47.40;98461.88;6139127;28;98116;-60
2021/08/29 08:52:16;;;;;;;;;15.20;14.00;;;;;23.62;47.88;98461.69;6140914;28;97461;-60
2021/08/29 08:55:40;;;;;;;;;16.00;15.00;;;;;23.67;48.54;98458.81;6129231;28;96600;-58
2021/08/29 08:59:04;;;;;;;;;17.20;15.20;;;;;23.69;47.05;98461.25;6127794;28;97504;-58
2021/08/29 09:02:26;;;;;;;;;19.00;16.00;;;;;23.64;48.19;98462.22;6127672;28;97508;-60
2021/08/29 09:05:48;;;;;;;;;17.00;16.00;;;;;23.62;47.12;98458.13;6126494;28;97607;-58
2021/08/29 09:09:04;;;;;;;;;15.00;14.50;;;;;23.60;47.78;98447.44;6140414;28;97506;-58
2021/08/29 09:12:18;;;;;;;;;13.40;12.40;;;;;23.66;47.76;98459.13;6139792;28;97599;-59
2021/08/29 09:15:22;;;;;;;;;18.00;17.00;;;;;23.67;47.55;98467.06;6139864;28;96995;-61
2021/08/29 09:18:28;;;;;;;;;17.20;16.80;;;;;23.67;48.40;98456.06;6138420;28;97409;-60
2021/08/29 09:21:36;;;;;;;;;16.80;15.80;;;;;22.03;49.13;98193.22;6139737;28;97607;-58
2021/08/29 09:24:52;;;;;;;;;18.00;15.00;;;;;23.60;48.54;98454.91;6138397;28;96733;-60
2021/08/29 09:28:17;;;;;;;;;11.50;10.00;;;;;23.58;47.03;98460.72;6132946;28;97314;-58
2021/08/29 09:31:43;;;;;;;;;8.40;7.40;;;;;23.67;46.47;98460.75;6132489;28;98113;-60
2021/08/29 09:35:02;;;;;;;;;9.00;8.80;;;;;23.75;45.96;98454.47;6130449;28;97603;-62
2021/08/29 09:38:38;;;;;;;;;8.00;8.00;;;;;23.81;46.22;98460.63;6120334;28;99840;-61
2021/08/29 09:41:50;;;;;;;;;8.33;8.00;;;;;23.76;45.54;98461.59;6126974;28;96754;-60
2021/08/29 09:45:19;;;;;;;;;8.80;8.00;;;;;23.77;46.82;98456.91;6105525;28;97460;-59
2021/08/29 09:48:46;;;;;;;;;11.00;11.00;;;;;23.83;47.35;98461.13;6112441;28;97080;-61
2021/08/29 09:51:57;;;;;;;;;7.25;7.00;;;;;23.91;46.51;98469.41;6113461;28;96960;-59
2021/08/29 09:55:12;;;;;;;;;8.40;8.00;;;;;23.98;46.27;98457.97;6096351;28;97147;-60
2021/08/29 09:58:47;;;;;;;;;8.60;8.00;;;;;23.96;46.24;98446.44;6076036;28;96852;-59
2021/08/29 10:02:19;;;;;;;;;11.00;10.50;;;;;24.05;45.54;98459.09;6111207;28;97519;-62
2021/08/29 10:05:23;;;;;;;;;12.00;11.00;;;;;24.07;45.71;98451.34;6112538;28;96831;-59
2021/08/29 10:08:41;;;;;;;;;10.40;9.40;;;;;24.05;45.41;98442.56;6101835;28;97295;-62
2021/08/29 10:11:56;;;;;;;;;9.40;9.00;;;;;24.06;46.19;98446.97;6113154;28;97120;-61
2021/08/29 10:14:59;;;;;;;;;9.00;9.00;;;;;24.09;45.72;98440.00;6107760;28;96863;-62
2021/08/29 10:18:11;;;;;;;;;8.75;8.50;;;;;24.12;45.64;98442.13;6139545;28;97516;-62
2021/08/29 10:21:23;;;;;;;;;10.25;10.25;;;;;24.19;45.55;98447.19;6141764;28;97462;-62
2021/08/29 10:24:31;;;;;;;;;9.40;9.40;;;;;24.20;44.99;98448.78;6122794;28;96683;-61
2021/08/29 10:27:38;;;;;;;;;12.00;11.00;;;;;24.06;44.29;98449.72;6139328;28;96761;-60
2021/08/29 10:31:03;;;;;;;;;10.80;10.40;;;;;23.95;45.37;98447.56;6135778;28;97442;-61
2021/08/29 10:34:26;;;;;;;;;10.60;9.60;;;;;23.92;45.71;98446.28;6121744;28;97507;-61
2021/08/29 10:37:30;;;;;;;;;12.40;11.40;;;;;23.70;45.45;98443.63;6122278;28;98169;-60
2021/08/29 10:40:53;;;;;;;;;11.50;11.50;;;;;23.44;45.91;98432.47;6139109;28;96912;-62
2021/08/29 10:44:02;;;;;;;;;12.25;12.25;;;;;23.33;46.73;98437.41;6121884;28;97583;-61
2021/08/29 10:47:24;;;;;;;;;13.20;13.20;;;;;23.26;47.11;98439.00;6128250;28;97525;-60
2021/08/29 10:51:05;;;;;;;;;13.00;13.00;;;;;23.22;47.87;98438.81;6064782;28;98086;-61
2021/08/29 10:54:12;;;;;;;;;13.60;13.00;;;;;23.24;48.33;98433.00;6120438;28;98177;-60
2021/08/29 10:57:29;;;;;;;;;11.20;11.20;;;;;23.16;48.12;98422.78;6114171;28;97165;-61
2021/08/29 11:00:36;;;;;;;;;12.00;11.00;;;;;23.26;47.01;98419.75;6137064;28;97634;-61
2021/08/29 11:04:00;;;;;;;;;10.60;10.00;;;;;23.17;47.15;98418.88;6138734;28;97435;-62
2021/08/29 11:07:45;;;;;;;;;11.00;10.60;;;;;23.11;46.56;98422.91;6134596;28;97425;-61
2021/08/29 11:10:48;;;;;;;;;12.25;11.00;;;;;23.14;46.81;98422.25;6118792;28;96954;-61
2021/08/29 11:13:53;;;;;;;;;13.00;11.00;;;;;23.20;47.06;98416.31;6124458;28;96720;-60
2021/08/29 11:17:09;;;;;;;;;12.00;12.00;;;;;23.29;46.76;98413.63;6119787;28;96860;-61
2021/08/29 11:20:57;;;;;;;;;10.60;10.60;;;;;23.45;47.88;98419.56;6130976;28;97636;-60
2021/08/29 11:24:47;;;;;;;;;15.00;14.40;;;;;23.56;47.03;98409.88;6136441;28;97493;-61
2021/08/29 11:28:00;;;;;;;;;11.75;11.00;;;;;23.65;47.60;98417.03;6120735;28;96793;-61
2021/08/29 11:31:49;;;;;;;;;11.00;11.00;;;;;23.72;47.36;98406.38;6138139;28;97262;-62
2021/08/29 11:35:04;;;;;;;;;13.00;12.00;;;;;23.81;47.27;98417.41;6120750;28;97704;-62
2021/08/29 11:38:13;;;;;;;;;12.00;11.00;;;;;23.88;47.41;98422.44;6136314;28;97288;-62
2021/08/29 11:41:23;;;;;;;;;10.00;10.00;;;;;23.86;47.68;98414.50;6138012;28;97545;-60
2021/08/29 11:44:35;;;;;;;;;15.00;14.00;;;;;23.97;47.31;98421.34;6152892;28;96715;-60
2021/08/29 11:47:42;;;;;;;;;12.00;11.00;;;;;23.93;46.64;98420.38;6162949;28;97615;-57
2021/08/29 11:50:53;;;;;;;;;13.00;12.00;;;;;23.92;46.66;98418.75;6145371;28;97486;-61
2021/08/29 11:54:21;;;;;;;;;13.00;12.00;;;;;23.86;46.55;98411.75;6149530;28;97784;-62
2021/08/29 11:57:32;;;;;;;;;15.20;13.80;;;;;23.70;46.75;98386.59;6141529;28;96679;-59
2021/08/29 12:00:37;;;;;;;;;12.25;11.25;;;;;23.83;46.99;98403.34;6161563;28;98045;-60
2021/08/29 12:03:55;;;;;;;;;11.00;11.00;;;;;23.80;46.54;98409.50;6145064;28;97167;-60
2021/08/29 12:07:06;;;;;;;;;11.20;10.20;;;;;23.82;47.03;98404.47;6135465;28;97917;-59
2021/08/29 12:10:28;;;;;;;;;12.00;11.00;;;;;23.95;46.88;98403.50;6162525;28;97513;-60
2021/08/29 12:13:52;;;;;;;;;12.80;12.00;;;;;24.13;46.52;98389.47;6161670;28;97375;-61
2021/08/29 12:17:28;;;;;;;;;12.00;12.00;;;;;24.21;45.30;98390.63;6162875;28;96588;-60
2021/08/29 12:20:32;;;;;;;;;11.40;11.00;;;;;24.34;45.88;98395.16;6161901;28;97166;-59
2021/08/29 12:23:56;;;;;;;;;11.00;11.00;;;;;24.59;45.56;98390.78;6162630;28;97480;-61
2021/08/29 12:27:02;;;;;;;;;11.00;11.00;;;;;24.88;44.80;98390.94;6149366;28;97149;-61
2021/08/29 12:30:10;;;;;;;;;13.00;12.00;;;;;25.01;43.79;98398.25;6164610;28;97749;-59
2021/08/29 12:33:15;;;;;;;;;12.25;11.00;;;;;25.12;42.82;98390.41;6148410;28;97531;-61
2021/08/29 12:36:23;;;;;;;;;12.00;11.60;;;;;25.31;42.81;98393.63;6147768;28;97620;-61
2021/08/29 12:39:27;;;;;;;;;11.40;11.00;;;;;25.46;41.60;98381.22;6147857;28;97502;-60
2021/08/29 12:42:32;;;;;;;;;11.00;10.50;;;;;25.55;41.66;98383.97;6138569;28;97425;-61
2021/08/29 12:45:43;;;;;;;;;11.00;10.00;;;;;25.57;41.38;98384.44;6127914;28;97076;-61
2021/08/29 12:48:47;;;;;;;;;10.80;10.00;;;;;25.61;41.60;98380.69;6140396;28;97327;-59
2021/08/29 12:51:51;;;;;;;;;13.40;13.00;;;;;25.79;41.24;98379.47;6139696;28;96614;-60
2021/08/29 12:54:57;;;;;;;;;14.00;12.00;;;;;25.71;40.75;98380.31;6138309;28;99539;-60
2021/08/29 12:58:01;;;;;;;;;15.75;14.50;;;;;25.56;41.40;98380.06;6140241;28;97102;-60
2021/08/29 13:01:06;;;;;;;;;12.00;11.00;;;;;25.55;41.47;98379.28;6140094;28;97893;-61
2021/08/29 13:04:10;;;;;;;;;13.00;13.00;;;;;25.51;41.60;98369.19;6139897;28;97191;-58
2021/08/29 13:07:13;;;;;;;;;14.00;13.00;;;;;25.45;41.66;98372.13;6140040;28;96676;-61
2021/08/29 13:10:17;;;;;;;;;14.00;14.00;;;;;25.40;41.83;98368.75;6135143;28;97208;-61
2021/08/29 13:13:32;;;;;;;;;11.60;11.00;;;;;25.40;40.89;98372.31;6141519;28;97396;-60
2021/08/29 13:16:42;;;;;;;;;11.20;11.00;;;;;25.40;41.77;98380.59;6140191;28;97600;-60
2021/08/29 13:19:58;;;;;;;;;10.80;10.80;;;;;25.47;41.64;98377.31;6120799;28;97743;-60
2021/08/29 13:23:01;;;;;;;;;10.40;10.00;;;;;25.46;41.70;98372.94;6137801;28;98027;-61
2021/08/29 13:26:04;;;;;;;;;9.00;9.00;;;;;25.52;40.88;98374.34;6139936;28;96707;-60
2021/08/29 13:29:08;;;;;;;;;8.33;7.33;;;;;25.43;40.18;98382.69;6140274;28;97971;-60
2021/08/29 13:32:14;;;;;;;;;8.00;8.00;;;;;25.22;40.38;98365.22;6137001;28;97544;-61
2021/08/29 13:35:19;;;;;;;;;9.00;8.00;;;;;25.03;40.91;98375.84;6135026;28;96573;-60
2021/08/29 13:38:23;;;;;;;;;8.00;7.00;;;;;25.08;41.38;98378.41;6141468;28;97628;-58
2021/08/29 13:41:28;;;;;;;;;9.00;8.60;;;;;24.98;41.89;98378.75;6143195;28;97804;-60
2021/08/29 13:44:31;;;;;;;;;10.00;10.00;;;;;24.74;42.04;98365.50;6138912;28;96889;-60
2021/08/29 13:47:36;;;;;;;;;8.50;8.00;;;;;24.68;42.53;98366.78;6139527;28;98041;-61
2021/08/29 13:50:39;;;;;;;;;7.00;7.00;;;;;24.49;41.96;98371.84;6140025;28;97485;-61
2021/08/29 13:53:43;;;;;;;;;6.75;6.50;;;;;24.26;42.67;98368.44;6139049;28;97472;-61
2021/08/29 13:56:46;;;;;;;;;7.00;6.00;;;;;24.09;42.95;98365.66;6128903;28;98056;-61
2021/08/29 13:59:50;;;;;;;;;7.00;6.25;;;;;23.91;43.43;98356.53;6134827;28;97459;-61
2021/08/29 14:02:55;;;;;;;;;6.75;6.75;;;;;23.76;43.58;98365.25;6138023;28;96891;-59
2021/08/29 14:05:59;;;;;;;;;8.20;7.80;;;;;23.62;43.69;98364.56;6121178;28;96916;-61
2021/08/29 14:09:02;;;;;;;;;6.00;6.00;;;;;23.62;44.40;98368.13;6138579;28;96924;-61
2021/08/29 14:12:06;;;;;;;;;8.40;7.00;;;;;23.67;44.15;98373.50;6138574;28;96837;-61
2021/08/29 14:15:10;;;;;;;;;8.00;7.00;;;;;23.67;44.12;98375.44;6131239;28;97133;-62
2021/08/29 14:18:15;;;;;;;;;8.00;8.00;;;;;23.62;43.85;98370.88;6138909;28;97078;-62
2021/08/29 14:21:18;;;;;;;;;6.00;6.00;;;;;23.62;43.10;98361.81;6136045;28;97408;-60
2021/08/29 14:24:22;;;;;;;;;8.00;8.00;;;;;23.59;43.96;98377.03;6120028;28;96663;-61
2021/08/29 14:27:25;;;;;;;;;6.50;6.00;;;;;23.58;43.38;98375.41;6119708;28;96777;-59
2021/08/29 14:30:30;;;;;;;;;6.00;6.00;;;;;23.58;43.61;98377.34;6135492;28;96758;-62
2021/08/29 14:33:34;;;;;;;;;9.00;8.00;;;;;23.51;44.20;98375.06;6138176;28;97453;-61
2021/08/29 14:36:38;;;;;;;;;7.00;6.00;;;;;23.42;43.86;98367.88;6131165;28;96773;-60
2021/08/29 14:39:41;;;;;;;;;7.50;7.50;;;;;23.58;43.46;98380.09;6139121;28;97256;-60